Clubb, Missouri
Current Conditions -  °F | °C
As of 2:21 AM on Monday 24 Nov 2014 (Local Time) from KPOF Reporting Station
Thunderstorm Thunderstorm  
Wind Chill: 57°   Ceiling: 2700
Heat Index: 57°   Visibility: 5mi
Dew Point: 53°   Wind: 15mph
Humidity: 87%   Direction: 240°WSW
Pressure: 29.3"   Gusts: 20mph
Location:  37.21°N, 90.35°W
Report Text: KPOF 240821Z AUTO 24013G17KT 5SM -TSRA BR FEW018 BKN027 OVC050 14/12 A2930 RMK AO2 RAB07 TSB19 P0003 T01390117
Loading
Personal Weather Stations






























Interactive Weather Map New forecast layout! Learn more

10-Day Weather Forecast

Advertisements
Track Severe Weather on mobile